sensor_id;sensor_type;location;lat;lon;timestamp;temperature;humidity
81935;DHT22;71405;47.674;-2.050;2024-01-06T00:02:15;18.10;52.70
81935;DHT22;71405;47.674;-2.050;2024-01-06T00:04:41;18.10;52.70
81935;DHT22;71405;47.674;-2.050;2024-01-06T00:07:07;18.00;52.80
81935;DHT22;71405;47.674;-2.050;2024-01-06T00:09:32;18.00;52.80
81935;DHT22;71405;47.674;-2.050;2024-01-06T00:11:58;18.00;52.90
81935;DHT22;71405;47.674;-2.050;2024-01-06T00:14:24;18.00;52.90
81935;DHT22;71405;47.674;-2.050;2024-01-06T00:16:49;18.00;52.90
81935;DHT22;71405;47.674;-2.050;2024-01-06T00:19:15;17.90;53.00
81935;DHT22;71405;47.674;-2.050;2024-01-06T00:21:43;17.90;52.90
81935;DHT22;71405;47.674;-2.050;2024-01-06T00:24:09;17.90;53.00
81935;DHT22;71405;47.674;-2.050;2024-01-06T00:26:34;17.90;53.00
81935;DHT22;71405;47.674;-2.050;2024-01-06T00:29:00;17.90;53.00
81935;DHT22;71405;47.674;-2.050;2024-01-06T00:31:25;18.00;52.80
81935;DHT22;71405;47.674;-2.050;2024-01-06T00:33:51;18.00;52.70
81935;DHT22;71405;47.674;-2.050;2024-01-06T00:36:17;18.00;52.80
81935;DHT22;71405;47.674;-2.050;2024-01-06T00:38:42;17.90;53.00
81935;DHT22;71405;47.674;-2.050;2024-01-06T00:41:08;17.90;53.00
81935;DHT22;71405;47.674;-2.050;2024-01-06T00:43:34;17.90;53.10
81935;DHT22;71405;47.674;-2.050;2024-01-06T00:45:59;17.90;53.10
81935;DHT22;71405;47.674;-2.050;2024-01-06T00:48:25;17.90;53.00
81935;DHT22;71405;47.674;-2.050;2024-01-06T00:50:51;17.90;53.00
81935;DHT22;71405;47.674;-2.050;2024-01-06T00:53:16;17.90;53.00
81935;DHT22;71405;47.674;-2.050;2024-01-06T00:55:42;17.90;53.00
81935;DHT22;71405;47.674;-2.050;2024-01-06T00:58:08;17.90;53.20
81935;DHT22;71405;47.674;-2.050;2024-01-06T01:00:34;17.80;53.00
81935;DHT22;71405;47.674;-2.050;2024-01-06T01:02:59;17.90;52.90
81935;DHT22;71405;47.674;-2.050;2024-01-06T01:05:25;17.90;53.00
81935;DHT22;71405;47.674;-2.050;2024-01-06T01:07:51;17.80;53.20
81935;DHT22;71405;47.674;-2.050;2024-01-06T01:10:16;17.80;53.20
81935;DHT22;71405;47.674;-2.050;2024-01-06T01:12:42;17.80;53.10
81935;DHT22;71405;47.674;-2.050;2024-01-06T01:15:08;17.80;53.10
81935;DHT22;71405;47.674;-2.050;2024-01-06T01:17:34;17.80;53.30
81935;DHT22;71405;47.674;-2.050;2024-01-06T01:19:59;17.80;53.10
81935;DHT22;71405;47.674;-2.050;2024-01-06T01:22:25;17.80;53.20
81935;DHT22;71405;47.674;-2.050;2024-01-06T01:24:51;17.70;53.20
81935;DHT22;71405;47.674;-2.050;2024-01-06T01:27:16;17.80;53.20
81935;DHT22;71405;47.674;-2.050;2024-01-06T01:29:42;17.70;53.30
81935;DHT22;71405;47.674;-2.050;2024-01-06T01:32:08;17.70;53.40
81935;DHT22;71405;47.674;-2.050;2024-01-06T01:34:33;17.70;53.40
81935;DHT22;71405;47.674;-2.050;2024-01-06T01:37:00;17.70;53.20
81935;DHT22;71405;47.674;-2.050;2024-01-06T01:39:25;17.70;53.70
81935;DHT22;71405;47.674;-2.050;2024-01-06T01:41:51;17.70;53.50
81935;DHT22;71405;47.674;-2.050;2024-01-06T01:44:17;17.70;53.50
81935;DHT22;71405;47.674;-2.050;2024-01-06T01:46:42;17.70;53.40
81935;DHT22;71405;47.674;-2.050;2024-01-06T01:49:08;17.70;53.80
81935;DHT22;71405;47.674;-2.050;2024-01-06T01:51:35;17.70;53.70
81935;DHT22;71405;47.674;-2.050;2024-01-06T01:54:01;17.60;53.80
81935;DHT22;71405;47.674;-2.050;2024-01-06T01:56:31;17.60;53.50
81935;DHT22;71405;47.674;-2.050;2024-01-06T01:59:11;17.60;53.70
81935;DHT22;71405;47.674;-2.050;2024-01-06T02:01:36;17.60;53.90
81935;DHT22;71405;47.674;-2.050;2024-01-06T02:04:03;17.60;53.60
81935;DHT22;71405;47.674;-2.050;2024-01-06T02:06:29;17.60;53.60
81935;DHT22;71405;47.674;-2.050;2024-01-06T02:08:55;17.60;53.70
81935;DHT22;71405;47.674;-2.050;2024-01-06T02:11:21;17.60;54.00
81935;DHT22;71405;47.674;-2.050;2024-01-06T02:13:46;17.60;53.80
81935;DHT22;71405;47.674;-2.050;2024-01-06T02:16:12;17.60;53.80
81935;DHT22;71405;47.674;-2.050;2024-01-06T02:18:38;17.60;54.00
81935;DHT22;71405;47.674;-2.050;2024-01-06T02:21:03;17.60;53.50
81935;DHT22;71405;47.674;-2.050;2024-01-06T02:23:30;17.60;53.70
81935;DHT22;71405;47.674;-2.050;2024-01-06T02:25:56;17.60;53.50
81935;DHT22;71405;47.674;-2.050;2024-01-06T02:28:22;17.60;53.60
81935;DHT22;71405;47.674;-2.050;2024-01-06T02:30:47;17.60;54.00
81935;DHT22;71405;47.674;-2.050;2024-01-06T02:33:13;17.60;53.60
81935;DHT22;71405;47.674;-2.050;2024-01-06T02:35:39;17.60;53.90
81935;DHT22;71405;47.674;-2.050;2024-01-06T02:38:06;17.60;53.70
81935;DHT22;71405;47.674;-2.050;2024-01-06T02:40:31;17.60;54.00
81935;DHT22;71405;47.674;-2.050;2024-01-06T02:42:58;17.50;53.70
81935;DHT22;71405;47.674;-2.050;2024-01-06T02:45:24;17.50;53.60
81935;DHT22;71405;47.674;-2.050;2024-01-06T02:47:49;17.60;53.80
81935;DHT22;71405;47.674;-2.050;2024-01-06T02:50:15;17.50;53.40
81935;DHT22;71405;47.674;-2.050;2024-01-06T02:52:41;17.50;53.90
81935;DHT22;71405;47.674;-2.050;2024-01-06T02:55:07;17.50;53.80
81935;DHT22;71405;47.674;-2.050;2024-01-06T02:57:32;17.50;53.80
81935;DHT22;71405;47.674;-2.050;2024-01-06T02:59:58;17.50;53.60
81935;DHT22;71405;47.674;-2.050;2024-01-06T03:02:24;17.50;53.90
81935;DHT22;71405;47.674;-2.050;2024-01-06T03:04:49;17.50;53.90
81935;DHT22;71405;47.674;-2.050;2024-01-06T03:07:15;17.50;53.70
81935;DHT22;71405;47.674;-2.050;2024-01-06T03:09:41;17.50;53.70
81935;DHT22;71405;47.674;-2.050;2024-01-06T03:12:07;17.50;54.20
81935;DHT22;71405;47.674;-2.050;2024-01-06T03:14:36;17.50;53.60
81935;DHT22;71405;47.674;-2.050;2024-01-06T03:17:01;17.50;53.80
81935;DHT22;71405;47.674;-2.050;2024-01-06T03:19:28;17.50;53.70
81935;DHT22;71405;47.674;-2.050;2024-01-06T03:21:54;17.50;53.60
81935;DHT22;71405;47.674;-2.050;2024-01-06T03:24:21;17.50;53.80
81935;DHT22;71405;47.674;-2.050;2024-01-06T03:26:47;17.50;53.40
81935;DHT22;71405;47.674;-2.050;2024-01-06T03:29:12;17.50;53.50
81935;DHT22;71405;47.674;-2.050;2024-01-06T03:31:42;17.50;53.70
81935;DHT22;71405;47.674;-2.050;2024-01-06T03:34:08;17.50;53.70
81935;DHT22;71405;47.674;-2.050;2024-01-06T03:36:34;17.50;53.60
81935;DHT22;71405;47.674;-2.050;2024-01-06T03:39:00;17.50;53.40
81935;DHT22;71405;47.674;-2.050;2024-01-06T03:41:25;17.50;53.40
81935;DHT22;71405;47.674;-2.050;2024-01-06T03:43:51;17.50;53.50
81935;DHT22;71405;47.674;-2.050;2024-01-06T03:46:17;17.50;53.50
81935;DHT22;71405;47.674;-2.050;2024-01-06T03:48:42;17.50;53.60
81935;DHT22;71405;47.674;-2.050;2024-01-06T03:51:10;17.50;53.80
81935;DHT22;71405;47.674;-2.050;2024-01-06T03:53:36;17.50;53.90
81935;DHT22;71405;47.674;-2.050;2024-01-06T03:56:03;17.50;53.70
81935;DHT22;71405;47.674;-2.050;2024-01-06T03:58:29;17.50;53.50
81935;DHT22;71405;47.674;-2.050;2024-01-06T04:00:54;17.50;53.70
81935;DHT22;71405;47.674;-2.050;2024-01-06T04:03:20;17.50;53.40
81935;DHT22;71405;47.674;-2.050;2024-01-06T04:05:46;17.50;53.60
81935;DHT22;71405;47.674;-2.050;2024-01-06T04:08:12;17.70;53.10
81935;DHT22;71405;47.674;-2.050;2024-01-06T04:10:37;18.00;52.20
81935;DHT22;71405;47.674;-2.050;2024-01-06T04:13:03;18.30;51.50
81935;DHT22;71405;47.674;-2.050;2024-01-06T04:15:29;18.60;51.00
81935;DHT22;71405;47.674;-2.050;2024-01-06T04:17:55;18.70;50.70
81935;DHT22;71405;47.674;-2.050;2024-01-06T04:20:21;18.70;50.60
81935;DHT22;71405;47.674;-2.050;2024-01-06T04:22:46;18.70;50.70
81935;DHT22;71405;47.674;-2.050;2024-01-06T04:25:12;18.60;50.90
81935;DHT22;71405;47.674;-2.050;2024-01-06T04:27:38;18.60;50.90
81935;DHT22;71405;47.674;-2.050;2024-01-06T04:30:04;18.60;50.90
81935;DHT22;71405;47.674;-2.050;2024-01-06T04:32:30;18.60;50.90
81935;DHT22;71405;47.674;-2.050;2024-01-06T04:34:55;18.60;50.80
81935;DHT22;71405;47.674;-2.050;2024-01-06T04:37:22;18.70;50.70
81935;DHT22;71405;47.674;-2.050;2024-01-06T04:39:49;18.70;50.50
81935;DHT22;71405;47.674;-2.050;2024-01-06T04:42:14;18.80;50.50
81935;DHT22;71405;47.674;-2.050;2024-01-06T04:44:40;18.80;50.40
81935;DHT22;71405;47.674;-2.050;2024-01-06T04:47:05;18.80;50.40
81935;DHT22;71405;47.674;-2.050;2024-01-06T04:49:31;18.80;50.30
81935;DHT22;71405;47.674;-2.050;2024-01-06T04:51:57;18.90;50.40
81935;DHT22;71405;47.674;-2.050;2024-01-06T04:54:22;18.90;50.40
81935;DHT22;71405;47.674;-2.050;2024-01-06T04:56:48;18.90;50.40
81935;DHT22;71405;47.674;-2.050;2024-01-06T04:59:14;18.90;50.20
81935;DHT22;71405;47.674;-2.050;2024-01-06T05:01:39;19.00;50.10
81935;DHT22;71405;47.674;-2.050;2024-01-06T05:04:05;19.00;50.10
81935;DHT22;71405;47.674;-2.050;2024-01-06T05:06:30;19.00;49.90
81935;DHT22;71405;47.674;-2.050;2024-01-06T05:08:56;19.00;49.90
81935;DHT22;71405;47.674;-2.050;2024-01-06T05:11:22;19.10;49.80
81935;DHT22;71405;47.674;-2.050;2024-01-06T05:13:48;19.10;49.80
81935;DHT22;71405;47.674;-2.050;2024-01-06T05:16:13;19.10;49.80
81935;DHT22;71405;47.674;-2.050;2024-01-06T05:18:39;19.10;49.80
81935;DHT22;71405;47.674;-2.050;2024-01-06T05:21:05;19.10;49.90
81935;DHT22;71405;47.674;-2.050;2024-01-06T05:23:31;19.10;49.90
81935;DHT22;71405;47.674;-2.050;2024-01-06T05:25:56;19.10;49.70
81935;DHT22;71405;47.674;-2.050;2024-01-06T05:28:22;19.10;49.70
81935;DHT22;71405;47.674;-2.050;2024-01-06T05:30:48;19.20;49.60
81935;DHT22;71405;47.674;-2.050;2024-01-06T05:33:15;19.20;49.60
81935;DHT22;71405;47.674;-2.050;2024-01-06T05:35:41;19.20;49.50
81935;DHT22;71405;47.674;-2.050;2024-01-06T05:38:07;19.30;49.40
81935;DHT22;71405;47.674;-2.050;2024-01-06T05:40:32;19.20;49.40
81935;DHT22;71405;47.674;-2.050;2024-01-06T05:42:58;19.30;49.50
81935;DHT22;71405;47.674;-2.050;2024-01-06T05:45:24;19.30;49.40
81935;DHT22;71405;47.674;-2.050;2024-01-06T05:47:50;19.30;49.30
81935;DHT22;71405;47.674;-2.050;2024-01-06T05:50:16;19.30;49.50
81935;DHT22;71405;47.674;-2.050;2024-01-06T05:52:42;19.30;49.40
81935;DHT22;71405;47.674;-2.050;2024-01-06T05:55:08;19.30;49.50
81935;DHT22;71405;47.674;-2.050;2024-01-06T05:57:34;19.30;49.40
81935;DHT22;71405;47.674;-2.050;2024-01-06T06:00:00;19.30;49.20
81935;DHT22;71405;47.674;-2.050;2024-01-06T06:02:26;19.30;49.30
81935;DHT22;71405;47.674;-2.050;2024-01-06T06:04:52;19.30;49.30
81935;DHT22;71405;47.674;-2.050;2024-01-06T06:07:18;19.40;49.20
81935;DHT22;71405;47.674;-2.050;2024-01-06T06:09:44;19.30;49.30
81935;DHT22;71405;47.674;-2.050;2024-01-06T06:12:15;19.40;49.30
81935;DHT22;71405;47.674;-2.050;2024-01-06T06:14:41;19.40;49.10
81935;DHT22;71405;47.674;-2.050;2024-01-06T06:17:07;19.40;49.20
81935;DHT22;71405;47.674;-2.050;2024-01-06T06:19:33;19.40;49.10
81935;DHT22;71405;47.674;-2.050;2024-01-06T06:21:58;19.40;49.00
81935;DHT22;71405;47.674;-2.050;2024-01-06T06:24:24;19.40;49.20
81935;DHT22;71405;47.674;-2.050;2024-01-06T06:26:50;19.40;49.00
81935;DHT22;71405;47.674;-2.050;2024-01-06T06:29:15;19.50;49.00
81935;DHT22;71405;47.674;-2.050;2024-01-06T06:31:41;19.40;49.00
81935;DHT22;71405;47.674;-2.050;2024-01-06T06:34:08;19.50;49.00
81935;DHT22;71405;47.674;-2.050;2024-01-06T06:36:35;19.50;48.90
81935;DHT22;71405;47.674;-2.050;2024-01-06T06:39:00;19.50;49.00
81935;DHT22;71405;47.674;-2.050;2024-01-06T06:41:26;19.50;48.90
81935;DHT22;71405;47.674;-2.050;2024-01-06T06:43:52;19.50;48.80
81935;DHT22;71405;47.674;-2.050;2024-01-06T06:46:18;19.50;48.70
81935;DHT22;71405;47.674;-2.050;2024-01-06T06:48:43;19.50;48.80
81935;DHT22;71405;47.674;-2.050;2024-01-06T06:51:09;19.50;48.80
81935;DHT22;71405;47.674;-2.050;2024-01-06T06:53:36;19.60;48.80
81935;DHT22;71405;47.674;-2.050;2024-01-06T06:56:01;19.60;48.70
81935;DHT22;71405;47.674;-2.050;2024-01-06T06:58:27;19.60;48.80
81935;DHT22;71405;47.674;-2.050;2024-01-06T07:00:53;19.60;48.70
81935;DHT22;71405;47.674;-2.050;2024-01-06T07:03:20;19.60;48.70
81935;DHT22;71405;47.674;-2.050;2024-01-06T07:05:45;19.60;48.70
81935;DHT22;71405;47.674;-2.050;2024-01-06T07:08:11;19.60;48.80
81935;DHT22;71405;47.674;-2.050;2024-01-06T07:10:38;19.60;48.80
81935;DHT22;71405;47.674;-2.050;2024-01-06T07:13:04;19.60;48.70
81935;DHT22;71405;47.674;-2.050;2024-01-06T07:15:30;19.60;48.70
81935;DHT22;71405;47.674;-2.050;2024-01-06T07:17:56;19.60;48.70
81935;DHT22;71405;47.674;-2.050;2024-01-06T07:20:22;19.60;48.60
81935;DHT22;71405;47.674;-2.050;2024-01-06T07:22:47;19.60;48.60
81935;DHT22;71405;47.674;-2.050;2024-01-06T07:25:13;19.60;48.60
81935;DHT22;71405;47.674;-2.050;2024-01-06T07:27:39;19.70;48.50
81935;DHT22;71405;47.674;-2.050;2024-01-06T07:30:05;19.70;48.70
81935;DHT22;71405;47.674;-2.050;2024-01-06T07:32:34;19.70;48.50
81935;DHT22;71405;47.674;-2.050;2024-01-06T07:34:59;19.70;48.60
81935;DHT22;71405;47.674;-2.050;2024-01-06T07:37:25;19.70;48.60
81935;DHT22;71405;47.674;-2.050;2024-01-06T07:39:51;19.70;48.50
81935;DHT22;71405;47.674;-2.050;2024-01-06T07:42:17;19.70;48.60
81935;DHT22;71405;47.674;-2.050;2024-01-06T07:44:43;19.70;48.50
81935;DHT22;71405;47.674;-2.050;2024-01-06T07:47:10;19.70;48.60
81935;DHT22;71405;47.674;-2.050;2024-01-06T07:49:35;19.70;48.70
81935;DHT22;71405;47.674;-2.050;2024-01-06T07:52:01;19.80;48.50
81935;DHT22;71405;47.674;-2.050;2024-01-06T07:54:27;19.80;48.60
81935;DHT22;71405;47.674;-2.050;2024-01-06T07:56:53;19.80;48.50
81935;DHT22;71405;47.674;-2.050;2024-01-06T07:59:19;19.80;48.50
81935;DHT22;71405;47.674;-2.050;2024-01-06T08:01:44;19.80;48.50
81935;DHT22;71405;47.674;-2.050;2024-01-06T08:04:10;19.80;48.60
81935;DHT22;71405;47.674;-2.050;2024-01-06T08:06:36;19.80;48.50
81935;DHT22;71405;47.674;-2.050;2024-01-06T08:09:01;19.80;48.50
81935;DHT22;71405;47.674;-2.050;2024-01-06T08:11:28;19.80;48.60
81935;DHT22;71405;47.674;-2.050;2024-01-06T08:13:54;19.80;48.60
81935;DHT22;71405;47.674;-2.050;2024-01-06T08:16:20;19.80;48.70
81935;DHT22;71405;47.674;-2.050;2024-01-06T08:18:46;19.90;48.60
81935;DHT22;71405;47.674;-2.050;2024-01-06T08:21:12;19.90;48.60
81935;DHT22;71405;47.674;-2.050;2024-01-06T08:23:37;19.80;48.60
81935;DHT22;71405;47.674;-2.050;2024-01-06T08:26:04;19.80;48.70
81935;DHT22;71405;47.674;-2.050;2024-01-06T08:28:30;19.70;48.90
81935;DHT22;71405;47.674;-2.050;2024-01-06T08:30:56;19.70;48.80
81935;DHT22;71405;47.674;-2.050;2024-01-06T08:33:21;19.80;48.80
81935;DHT22;71405;47.674;-2.050;2024-01-06T08:35:47;19.90;48.50
81935;DHT22;71405;47.674;-2.050;2024-01-06T08:38:14;19.90;48.50
81935;DHT22;71405;47.674;-2.050;2024-01-06T08:40:39;19.90;48.40
81935;DHT22;71405;47.674;-2.050;2024-01-06T08:43:05;19.90;48.40
81935;DHT22;71405;47.674;-2.050;2024-01-06T08:45:31;19.90;48.50
81935;DHT22;71405;47.674;-2.050;2024-01-06T08:47:57;19.90;48.50
81935;DHT22;71405;47.674;-2.050;2024-01-06T08:50:22;19.90;48.50
81935;DHT22;71405;47.674;-2.050;2024-01-06T08:52:48;19.90;48.60
81935;DHT22;71405;47.674;-2.050;2024-01-06T08:55:14;19.90;48.60
81935;DHT22;71405;47.674;-2.050;2024-01-06T08:57:42;19.90;48.50
81935;DHT22;71405;47.674;-2.050;2024-01-06T09:00:08;19.90;48.50
81935;DHT22;71405;47.674;-2.050;2024-01-06T09:02:34;19.90;48.50
81935;DHT22;71405;47.674;-2.050;2024-01-06T09:05:00;19.90;48.60
81935;DHT22;71405;47.674;-2.050;2024-01-06T09:07:26;19.90;48.60
81935;DHT22;71405;47.674;-2.050;2024-01-06T09:09:51;19.90;48.60
81935;DHT22;71405;47.674;-2.050;2024-01-06T09:12:17;19.90;48.50
81935;DHT22;71405;47.674;-2.050;2024-01-06T09:14:42;19.80;47.80
81935;DHT22;71405;47.674;-2.050;2024-01-06T09:17:08;19.30;47.60
81935;DHT22;71405;47.674;-2.050;2024-01-06T09:19:34;18.90;47.70
81935;DHT22;71405;47.674;-2.050;2024-01-06T09:22:00;18.70;48.00
81935;DHT22;71405;47.674;-2.050;2024-01-06T09:24:26;18.60;47.90
81935;DHT22;71405;47.674;-2.050;2024-01-06T09:26:51;18.60;47.70
81935;DHT22;71405;47.674;-2.050;2024-01-06T09:29:17;18.80;47.80
81935;DHT22;71405;47.674;-2.050;2024-01-06T09:31:43;19.10;47.30
81935;DHT22;71405;47.674;-2.050;2024-01-06T09:34:11;19.40;46.90
81935;DHT22;71405;47.674;-2.050;2024-01-06T09:36:38;19.60;46.70
81935;DHT22;71405;47.674;-2.050;2024-01-06T09:39:04;19.70;46.60
81935;DHT22;71405;47.674;-2.050;2024-01-06T09:41:31;19.70;46.70
81935;DHT22;71405;47.674;-2.050;2024-01-06T09:43:56;19.70;46.70
81935;DHT22;71405;47.674;-2.050;2024-01-06T09:46:27;19.70;46.80
81935;DHT22;71405;47.674;-2.050;2024-01-06T09:48:55;19.70;46.80
81935;DHT22;71405;47.674;-2.050;2024-01-06T09:51:23;19.80;46.90
81935;DHT22;71405;47.674;-2.050;2024-01-06T09:53:58;19.80;47.00
81935;DHT22;71405;47.674;-2.050;2024-01-06T09:56:25;19.80;47.00
81935;DHT22;71405;47.674;-2.050;2024-01-06T09:58:51;19.90;47.00
81935;DHT22;71405;47.674;-2.050;2024-01-06T10:01:19;19.90;47.00
81935;DHT22;71405;47.674;-2.050;2024-01-06T10:03:45;19.90;47.10
81935;DHT22;71405;47.674;-2.050;2024-01-06T10:06:13;19.90;47.20
81935;DHT22;71405;47.674;-2.050;2024-01-06T10:08:38;19.90;47.20
81935;DHT22;71405;47.674;-2.050;2024-01-06T10:11:06;19.80;47.30
81935;DHT22;71405;47.674;-2.050;2024-01-06T10:13:33;19.80;47.50
81935;DHT22;71405;47.674;-2.050;2024-01-06T10:15:59;19.80;47.50
81935;DHT22;71405;47.674;-2.050;2024-01-06T10:18:25;19.80;47.50
81935;DHT22;71405;47.674;-2.050;2024-01-06T10:20:52;19.80;47.40
81935;DHT22;71405;47.674;-2.050;2024-01-06T10:23:19;19.80;47.40
81935;DHT22;71405;47.674;-2.050;2024-01-06T10:25:44;19.80;47.40
81935;DHT22;71405;47.674;-2.050;2024-01-06T10:28:13;19.90;47.40
81935;DHT22;71405;47.674;-2.050;2024-01-06T10:30:39;19.90;47.40
81935;DHT22;71405;47.674;-2.050;2024-01-06T10:33:11;19.90;47.50
81935;DHT22;71405;47.674;-2.050;2024-01-06T10:35:39;19.90;47.40
81935;DHT22;71405;47.674;-2.050;2024-01-06T10:38:05;19.90;47.60
81935;DHT22;71405;47.674;-2.050;2024-01-06T10:40:31;19.80;47.50
81935;DHT22;71405;47.674;-2.050;2024-01-06T10:42:57;19.90;47.60
81935;DHT22;71405;47.674;-2.050;2024-01-06T10:45:24;19.90;47.60
81935;DHT22;71405;47.674;-2.050;2024-01-06T10:47:50;19.90;47.60
81935;DHT22;71405;47.674;-2.050;2024-01-06T10:50:19;19.90;47.60
81935;DHT22;71405;47.674;-2.050;2024-01-06T10:52:47;20.00;47.60
81935;DHT22;71405;47.674;-2.050;2024-01-06T10:55:15;20.00;47.60
81935;DHT22;71405;47.674;-2.050;2024-01-06T10:57:43;20.00;47.70
81935;DHT22;71405;47.674;-2.050;2024-01-06T11:00:10;20.00;47.70
81935;DHT22;71405;47.674;-2.050;2024-01-06T11:02:37;20.00;47.70
81935;DHT22;71405;47.674;-2.050;2024-01-06T11:05:04;20.00;47.80
81935;DHT22;71405;47.674;-2.050;2024-01-06T11:07:33;20.00;47.80
81935;DHT22;71405;47.674;-2.050;2024-01-06T11:10:06;20.00;47.80
81935;DHT22;71405;47.674;-2.050;2024-01-06T11:12:33;20.00;47.80
81935;DHT22;71405;47.674;-2.050;2024-01-06T11:14:59;20.00;47.90
81935;DHT22;71405;47.674;-2.050;2024-01-06T11:17:51;20.00;47.80
81935;DHT22;71405;47.674;-2.050;2024-01-06T11:20:21;20.00;47.90
81935;DHT22;71405;47.674;-2.050;2024-01-06T11:22:47;20.00;47.80
81935;DHT22;71405;47.674;-2.050;2024-01-06T11:25:15;20.00;47.90
81935;DHT22;71405;47.674;-2.050;2024-01-06T11:27:43;20.00;47.90
81935;DHT22;71405;47.674;-2.050;2024-01-06T11:30:23;20.10;48.00
81935;DHT22;71405;47.674;-2.050;2024-01-06T11:32:51;20.10;47.90
81935;DHT22;71405;47.674;-2.050;2024-01-06T11:35:18;20.10;47.90
81935;DHT22;71405;47.674;-2.050;2024-01-06T11:43:08;20.20;48.00
81935;DHT22;71405;47.674;-2.050;2024-01-06T11:45:35;20.10;48.00
81935;DHT22;71405;47.674;-2.050;2024-01-06T11:48:06;20.10;48.00
81935;DHT22;71405;47.674;-2.050;2024-01-06T11:50:37;20.10;48.00
81935;DHT22;71405;47.674;-2.050;2024-01-06T11:53:04;20.10;48.20
81935;DHT22;71405;47.674;-2.050;2024-01-06T11:55:30;20.10;48.00
81935;DHT22;71405;47.674;-2.050;2024-01-06T11:58:00;20.10;48.00
81935;DHT22;71405;47.674;-2.050;2024-01-06T12:00:34;20.10;48.10
81935;DHT22;71405;47.674;-2.050;2024-01-06T12:03:01;20.10;48.10
81935;DHT22;71405;47.674;-2.050;2024-01-06T12:05:28;20.10;48.20
81935;DHT22;71405;47.674;-2.050;2024-01-06T12:10:21;20.10;48.30
81935;DHT22;71405;47.674;-2.050;2024-01-06T12:13:06;20.10;48.60
81935;DHT22;71405;47.674;-2.050;2024-01-06T12:15:36;20.20;49.60
81935;DHT22;71405;47.674;-2.050;2024-01-06T12:18:05;20.20;49.50
81935;DHT22;71405;47.674;-2.050;2024-01-06T12:20:31;20.30;49.80
81935;DHT22;71405;47.674;-2.050;2024-01-06T12:22:57;20.20;50.10
81935;DHT22;71405;47.674;-2.050;2024-01-06T12:25:24;20.20;50.20
81935;DHT22;71405;47.674;-2.050;2024-01-06T12:27:50;20.20;50.30
81935;DHT22;71405;47.674;-2.050;2024-01-06T12:30:19;20.20;50.10
81935;DHT22;71405;47.674;-2.050;2024-01-06T12:32:46;20.30;50.10
81935;DHT22;71405;47.674;-2.050;2024-01-06T12:35:13;20.30;50.00
81935;DHT22;71405;47.674;-2.050;2024-01-06T12:37:41;20.30;49.80
81935;DHT22;71405;47.674;-2.050;2024-01-06T12:40:08;20.30;49.80
81935;DHT22;71405;47.674;-2.050;2024-01-06T12:42:34;20.30;50.00
81935;DHT22;71405;47.674;-2.050;2024-01-06T12:45:01;20.30;49.80
81935;DHT22;71405;47.674;-2.050;2024-01-06T12:47:27;20.40;49.70
81935;DHT22;71405;47.674;-2.050;2024-01-06T12:49:53;20.40;49.60
81935;DHT22;71405;47.674;-2.050;2024-01-06T12:52:19;20.30;49.80
81935;DHT22;71405;47.674;-2.050;2024-01-06T12:54:44;20.30;49.80
81935;DHT22;71405;47.674;-2.050;2024-01-06T12:57:11;20.40;49.80
81935;DHT22;71405;47.674;-2.050;2024-01-06T12:59:37;20.40;49.70
81935;DHT22;71405;47.674;-2.050;2024-01-06T13:02:03;20.40;49.70
81935;DHT22;71405;47.674;-2.050;2024-01-06T13:04:28;20.50;49.70
81935;DHT22;71405;47.674;-2.050;2024-01-06T13:06:54;20.50;49.70
81935;DHT22;71405;47.674;-2.050;2024-01-06T13:09:20;20.50;49.70
81935;DHT22;71405;47.674;-2.050;2024-01-06T13:11:49;20.50;49.70
81935;DHT22;71405;47.674;-2.050;2024-01-06T13:14:16;20.50;49.70
81935;DHT22;71405;47.674;-2.050;2024-01-06T13:16:42;20.50;49.70
81935;DHT22;71405;47.674;-2.050;2024-01-06T13:19:07;20.50;49.70
81935;DHT22;71405;47.674;-2.050;2024-01-06T13:21:33;20.50;49.70
81935;DHT22;71405;47.674;-2.050;2024-01-06T13:24:01;20.40;49.70
81935;DHT22;71405;47.674;-2.050;2024-01-06T13:26:28;20.40;49.70
81935;DHT22;71405;47.674;-2.050;2024-01-06T13:28:54;20.50;49.70
81935;DHT22;71405;47.674;-2.050;2024-01-06T13:31:19;20.50;49.60
81935;DHT22;71405;47.674;-2.050;2024-01-06T13:33:46;20.50;49.70
81935;DHT22;71405;47.674;-2.050;2024-01-06T13:36:12;20.50;49.60
81935;DHT22;71405;47.674;-2.050;2024-01-06T13:38:38;20.50;49.50
81935;DHT22;71405;47.674;-2.050;2024-01-06T13:41:04;20.50;49.60
81935;DHT22;71405;47.674;-2.050;2024-01-06T13:43:29;20.50;49.50
81935;DHT22;71405;47.674;-2.050;2024-01-06T13:45:57;20.60;49.50
81935;DHT22;71405;47.674;-2.050;2024-01-06T13:48:23;20.50;49.50
81935;DHT22;71405;47.674;-2.050;2024-01-06T13:50:49;20.50;49.50
81935;DHT22;71405;47.674;-2.050;2024-01-06T13:53:15;20.50;49.50
81935;DHT22;71405;47.674;-2.050;2024-01-06T13:55:41;20.50;49.50
81935;DHT22;71405;47.674;-2.050;2024-01-06T13:58:07;20.50;49.60
81935;DHT22;71405;47.674;-2.050;2024-01-06T14:00:35;20.50;49.60
81935;DHT22;71405;47.674;-2.050;2024-01-06T14:03:01;20.50;49.60
81935;DHT22;71405;47.674;-2.050;2024-01-06T14:05:27;20.50;49.50
81935;DHT22;71405;47.674;-2.050;2024-01-06T14:07:53;20.50;49.60
81935;DHT22;71405;47.674;-2.050;2024-01-06T14:10:19;20.50;49.60
81935;DHT22;71405;47.674;-2.050;2024-01-06T14:12:45;20.50;49.70
81935;DHT22;71405;47.674;-2.050;2024-01-06T14:15:10;20.50;49.60
81935;DHT22;71405;47.674;-2.050;2024-01-06T14:17:36;20.50;49.70
81935;DHT22;71405;47.674;-2.050;2024-01-06T14:20:03;20.50;49.70
81935;DHT22;71405;47.674;-2.050;2024-01-06T14:22:29;20.40;49.70
81935;DHT22;71405;47.674;-2.050;2024-01-06T14:24:55;20.40;49.80
81935;DHT22;71405;47.674;-2.050;2024-01-06T14:27:21;20.40;49.80
81935;DHT22;71405;47.674;-2.050;2024-01-06T14:29:48;20.40;49.80
81935;DHT22;71405;47.674;-2.050;2024-01-06T14:32:13;20.30;49.90
81935;DHT22;71405;47.674;-2.050;2024-01-06T14:34:39;20.30;49.90
81935;DHT22;71405;47.674;-2.050;2024-01-06T14:37:05;20.30;50.00
81935;DHT22;71405;47.674;-2.050;2024-01-06T14:39:31;20.30;49.90
81935;DHT22;71405;47.674;-2.050;2024-01-06T14:41:57;20.30;49.90
81935;DHT22;71405;47.674;-2.050;2024-01-06T14:44:22;20.30;50.00
81935;DHT22;71405;47.674;-2.050;2024-01-06T14:46:49;20.30;49.90
81935;DHT22;71405;47.674;-2.050;2024-01-06T14:49:16;20.30;49.90
81935;DHT22;71405;47.674;-2.050;2024-01-06T14:51:42;20.40;49.90
81935;DHT22;71405;47.674;-2.050;2024-01-06T14:54:08;20.40;49.80
81935;DHT22;71405;47.674;-2.050;2024-01-06T14:56:37;20.40;49.80
81935;DHT22;71405;47.674;-2.050;2024-01-06T14:59:05;20.40;49.70
81935;DHT22;71405;47.674;-2.050;2024-01-06T15:01:31;20.40;49.70
81935;DHT22;71405;47.674;-2.050;2024-01-06T15:03:57;20.40;49.60
81935;DHT22;71405;47.674;-2.050;2024-01-06T15:06:23;20.40;49.60
81935;DHT22;71405;47.674;-2.050;2024-01-06T15:08:49;20.50;49.70
81935;DHT22;71405;47.674;-2.050;2024-01-06T15:11:14;20.40;49.70
81935;DHT22;71405;47.674;-2.050;2024-01-06T15:13:40;20.40;49.70
81935;DHT22;71405;47.674;-2.050;2024-01-06T15:16:06;20.40;49.70
81935;DHT22;71405;47.674;-2.050;2024-01-06T15:18:32;20.40;49.70